Date,TemperatureHighF,TemperatureAvgF,TemperatureLowF,DewpointHighF,DewpointAvgF,DewpointLowF,HumidityHigh,HumidityAvg,HumidityLow,PressureMaxIn,PressureMinIn,WindSpeedMaxMPH,WindSpeedAvgMPH,GustSpeedMaxMPH,PrecipitationSumIn
2013-1-1,85,73,65,68,61,56,91,67,43,30.00,29.82,25,10,34,0.00
2013-1-2,85,73,66,66,60,54,74,62,40,29.93,29.84,23,10,33,0.00
2013-1-3,86,74,66,67,59,45,71,60,42,29.94,29.84,22,11,27,0.00
2013-1-4,84,74,68,63,60,57,79,62,45,29.97,29.81,32,17,48,0.05
2013-1-5,83,73,66,66,58,49,86,58,39,30.00,29.88,29,11,34,0.00
2013-1-6,81,72,63,65,59,50,81,64,54,30.02,29.89,15,8,25,0.00
2013-1-7,86,72,63,64,59,52,82,63,40,29.97,29.83,24,11,28,0.00
2013-1-8,85,72,63,64,58,45,79,61,45,29.89,29.76,24,11,27,0.00
2013-1-9,82,72,63,64,61,56,79,68,48,29.90,29.78,16,9,20,0.00
2013-1-10,83,71,63,66,60,53,83,68,47,29.89,29.79,21,10,26,0.00
2013-1-11,83,72,65,65,61,53,82,69,49,29.85,29.77,26,10,30,0.03
2013-1-12,73,64,61,56,54,51,78,71,52,29.88,29.82,7,5,11,0.00
2013-1-13,82,70,64,67,59,55,84,68,49,29.91,29.81,10,5,14,0.00
2013-1-14,82,73,63,69,64,55,94,74,56,29.92,29.78,11,5,15,0.01
2013-1-15,80,71,68,72,68,67,99,90,68,29.87,29.78,9,3,11,0.23
2013-1-16,81,72,65,68,64,58,96,78,53,29.87,29.75,10,5,15,0.01
2013-1-17,79,70,59,62,59,53,88,70,51,29.84,29.73,11,6,17,0.00
2013-1-18,79,70,60,63,59,56,87,68,48,29.85,29.74,13,6,15,0.00
2013-1-19,86,71,60,58,53,40,80,58,22,29.92,29.78,19,12,28,0.00
2013-1-20,85,71,64,59,54,47,75,58,34,29.94,29.83,20,13,29,0.00
2013-1-21,82,71,64,64,57,53,77,62,39,30.00,29.89,25,13,33,0.00
2013-1-22,85,72,65,62,58,53,76,62,35,30.02,29.90,21,12,30,0.00
2013-1-23,83,71,64,64,60,55,83,70,46,29.97,29.89,23,8,26,0.00
2013-1-24,80,71,63,66,60,54,87,69,47,29.98,29.90,9,6,14,0.00
2013-1-25,81,71,61,65,61,54,86,72,52,29.98,29.89,11,5,14,0.00
2013-1-26,80,70,62,65,60,55,89,72,52,29.96,29.85,11,5,14,0.00
2013-1-27,82,71,60,64,58,52,81,67,46,29.93,29.81,12,6,14,0.00
2013-1-28,80,72,64,64,60,54,76,67,52,29.91,29.80,11,5,14,0.00
2013-1-29,77,70,65,68,63,57,93,79,62,29.94,29.83,8,4,11,0.00
2013-1-30,79,72,66,72,66,61,99,82,63,29.97,29.90,9,5,12,0.12
2013-1-31,82,72,64,67,63,57,87,73,52,29.99,29.89,16,8,24,0.00
2013-2-1,82,73,67,63,60,51,83,66,42,30.00,29.87,29,16,37,0.00
2013-2-2,86,72,62,64,56,44,77,59,38,30.03,29.93,18,10,25,0.00
2013-2-3,85,70,62,62,57,54,78,64,36,30.06,29.93,26,12,30,0.00
2013-2-4,81,70,64,64,58,54,83,66,43,29.99,29.91,28,15,36,0.00
2013-2-5,82,71,65,61,58,55,79,64,43,29.97,29.87,22,13,34,0.00
2013-2-6,83,72,64,63,59,53,79,63,45,29.97,29.87,22,10,30,0.00
2013-2-7,81,73,67,68,62,56,80,69,54,30.01,29.88,19,10,28,0.04
2013-2-8,84,73,63,65,61,53,80,67,42,30.03,29.91,19,9,23,0.00
2013-2-9,82,71,61,64,59,50,78,66,49,30.01,29.91,22,12,32,0.00
2013-2-10,84,73,66,64,60,56,80,64,38,30.06,29.92,26,15,36,0.00
2013-2-11,85,72,64,64,59,52,80,64,36,30.08,29.96,25,14,36,0.01
2013-2-12,82,70,64,60,58,56,80,66,43,30.06,29.94,22,12,33,0.00
2013-2-13,80,69,62,57,54,51,78,61,41,30.02,29.89,20,12,26,0.00
2013-2-14,82,70,61,58,56,50,80,63,41,29.98,29.86,21,12,28,0.00
2013-2-15,82,71,61,63,59,53,78,66,49,29.99,29.85,26,12,36,0.02
2013-2-16,80,72,67,61,58,56,77,64,47,29.98,29.84,28,17,37,0.08
2013-2-17,82,72,65,61,56,48,72,57,37,29.99,29.86,31,17,41,0.14
2013-2-18,80,71,65,61,57,50,73,63,49,29.99,29.85,34,18,49,0.29
2013-2-19,80,70,65,60,57,55,76,64,47,30.00,29.86,30,17,41,0.02
2013-2-20,82,72,64,62,59,54,79,65,44,30.01,29.91,25,14,40,0.02
2013-2-21,83,73,65,65,61,58,80,68,50,30.01,29.91,19,12,28,0.00
2013-2-22,86,73,66,62,58,56,75,60,39,30.01,29.89,23,13,33,0.00
2013-2-23,83,72,67,64,59,56,80,64,41,30.00,29.90,23,14,31,0.00
2013-2-24,82,72,66,62,59,55,77,66,46,29.99,29.86,28,16,33,0.00
2013-2-25,83,72,64,62,59,57,79,66,44,30.01,29.89,24,16,36,0.00
2013-2-26,84,72,65,62,56,51,74,59,38,30.03,29.91,28,16,44,0.01
2013-2-27,81,71,65,60,57,52,75,62,45,30.05,29.95,25,14,32,0.01
2013-2-28,82,71,62,59,55,48,75,59,40,30.07,29.95,22,14,33,0.00
2013-3-1,81,71,64,59,54,50,75,57,35,30.05,29.90,25,17,36,0.00
2013-3-2,81,71,64,61,57,50,77,62,43,30.05,29.91,23,16,36,0.00
2013-3-3,83,71,62,59,57,55,78,63,39,30.05,29.95,20,14,29,0.00
2013-3-4,84,71,64,59,56,52,78,61,39,30.04,29.96,21,13,29,0.00
2013-3-5,82,71,62,60,56,52,78,62,38,30.04,29.94,18,10,24,0.00
2013-3-6,81,71,61,63,59,50,80,67,45,30.03,29.95,15,8,21,0.00
2013-3-7,79,70,61,64,60,51,90,71,46,29.99,29.90,12,6,18,0.05
2013-3-8,80,70,59,64,60,52,88,70,48,29.97,29.82,11,5,18,0.00
2013-3-9,84,73,60,65,56,48,78,58,36,29.91,29.77,20,10,30,0.00
2013-3-10,85,73,64,69,65,55,95,76,47,29.94,29.78,22,9,29,0.00
2013-3-11,80,72,63,68,64,55,95,76,56,29.99,29.88,12,6,16,0.09
2013-3-12,78,72,67,68,64,61,92,77,60,29.99,29.89,12,5,16,0.00
2013-3-13,83,72,64,65,62,57,84,70,52,29.99,29.88,13,9,18,0.00
2013-3-14,81,72,63,64,61,56,83,70,50,29.99,29.89,12,6,15,0.00
2013-3-15,77,70,66,68,65,62,98,86,70,29.92,29.83,11,4,21,0.06
2013-3-16,70,66,63,68,63,58,99,89,81,29.93,29.83,9,3,12,0.35
2013-3-17,79,69,63,62,58,54,84,71,50,29.95,29.84,11,6,15,0.00
2013-3-18,81,71,62,60,54,47,83,59,32,29.94,29.83,11,7,15,0.00
2013-3-19,81,71,60,60,56,50,77,61,43,29.96,29.85,12,7,17,0.00
2013-3-20,85,72,63,65,59,53,81,65,40,30.00,29.88,13,6,17,0.00
2013-3-21,83,74,66,69,63,57,91,68,51,29.97,29.87,12,6,17,0.00
2013-3-22,79,72,65,67,63,57,88,73,60,29.97,29.85,9,4,13,0.00
2013-3-23,83,72,64,68,63,58,85,73,60,29.93,29.81,12,6,18,0.00
2013-3-24,82,73,69,68,64,58,89,74,56,29.95,29.83,13,5,16,0.00
2013-3-25,83,73,63,68,64,58,91,74,57,29.94,29.83,13,6,16,0.00
2013-3-26,83,74,67,68,64,61,83,73,55,29.95,29.84,15,8,17,0.00
2013-3-27,83,73,66,67,61,56,82,68,50,29.93,29.83,14,8,21,0.00
2013-3-28,84,74,66,63,60,55,85,64,37,29.95,29.82,24,12,34,0.00
2013-3-29,85,71,66,68,63,60,96,78,44,29.96,29.86,15,8,24,0.13
2013-3-30,78,71,64,70,64,60,89,78,60,29.97,29.87,11,5,14,0.00
2013-3-31,84,72,64,63,60,57,82,67,45,29.93,29.86,16,8,24,0.00
2013-4-1,78,68,59,58,55,49,81,63,41,29.94,29.84,13,6,20,0.00
2013-4-2,80,69,59,59,56,52,79,65,42,29.98,29.87,15,8,20,0.00
2013-4-3,81,71,62,60,57,52,82,63,43,30.00,29.89,14,8,17,0.00
2013-4-4,83,72,61,62,56,51,77,58,37,30.00,29.89,11,8,14,0.00
2013-4-5,87,73,65,67,62,57,81,69,48,30.03,29.92,15,7,24,0.00
2013-4-6,84,74,64,68,63,57,91,69,55,30.06,29.94,11,5,14,0.00
2013-4-7,82,74,68,70,65,60,84,72,59,30.07,29.96,12,6,24,0.00
2013-4-8,86,74,65,67,62,56,88,67,42,30.01,29.89,15,6,21,0.00
2013-4-9,85,74,66,68,64,56,88,72,52,29.99,29.85,14,7,18,0.05
2013-4-10,85,75,63,69,64,58,88,71,50,29.98,29.86,10,6,17,0.00
2013-4-11,83,75,69,69,66,62,91,74,54,29.95,29.85,11,5,17,0.01
2013-4-12,81,74,65,69,65,57,86,74,63,29.91,29.82,12,5,17,0.00
2013-4-13,92,75,68,69,64,52,86,70,27,29.91,29.75,15,6,24,0.00
2013-4-14,83,74,65,69,64,58,90,72,50,29.91,29.80,11,6,17,0.00
2013-4-15,83,74,64,68,64,59,87,70,53,29.97,29.86,11,5,17,0.00
2013-4-16,81,74,67,70,66,56,93,77,62,30.02,29.91,12,6,17,0.00
2013-4-17,88,75,67,68,62,54,81,65,32,30.03,29.93,19,10,27,0.00
2013-4-18,87,74,67,70,63,59,92,71,43,30.03,29.94,16,11,28,0.11
2013-4-19,83,73,65,69,63,55,79,70,47,30.01,29.92,15,8,22,0.00
2013-4-20,82,73,66,69,65,59,88,75,58,30.00,29.93,11,7,19,0.00
2013-4-21,84,74,64,68,64,59,90,74,46,29.98,29.89,11,5,15,0.00
2013-4-22,84,74,64,69,64,59,88,73,52,29.98,29.89,12,6,17,0.00
2013-4-23,84,76,66,70,66,61,92,73,49,30.00,29.91,12,6,17,0.00
2013-4-24,87,76,66,69,66,59,95,73,50,29.99,29.89,14,6,21,0.00
2013-4-25,88,75,67,68,62,58,77,65,44,29.98,29.88,20,10,28,0.00
2013-4-26,87,75,68,63,61,59,78,63,40,29.95,29.87,20,12,34,0.00
2013-4-27,86,75,66,65,62,56,78,64,47,29.97,29.86,12,7,18,0.00
2013-4-28,83,75,66,67,62,57,80,66,52,29.96,29.85,12,6,16,0.00
2013-4-29,83,75,68,69,66,61,91,74,58,29.92,29.83,13,6,17,0.00
2013-4-30,86,76,65,68,63,56,79,66,49,29.95,29.85,12,7,21,0.00
2013-5-1,84,74,65,65,62,54,79,67,43,29.99,29.89,16,8,23,0.00
2013-5-2,86,73,66,69,64,58,93,76,49,30.00,29.93,15,7,19,0.34
2013-5-3,85,72,66,71,64,56,95,77,48,29.98,29.89,14,7,17,0.19
2013-5-4,79,72,67,70,67,60,98,84,63,29.93,29.85,13,6,17,0.14
2013-5-5,80,72,66,69,67,65,99,84,64,29.90,29.80,10,5,14,0.18
2013-5-6,81,74,68,70,68,65,98,83,62,29.91,29.81,10,4,16,0.01
2013-5-7,84,76,66,70,66,63,96,75,56,29.92,29.83,10,5,17,0.00
2013-5-8,84,76,66,69,66,62,88,71,54,29.96,29.86,12,5,19,0.00
2013-5-9,86,77,67,70,67,62,88,72,51,29.99,29.89,13,6,19,0.00
2013-5-10,87,78,69,73,69,64,93,74,59,30.01,29.91,12,6,21,0.00
2013-5-11,83,77,71,73,70,66,98,81,68,29.99,29.90,13,5,21,0.00
2013-5-12,89,78,72,72,68,65,84,71,51,29.97,29.88,19,10,28,0.00
2013-5-13,84,77,70,72,67,60,87,71,59,29.97,29.89,15,8,22,0.00
2013-5-14,87,78,69,68,63,55,76,60,46,30.01,29.92,22,13,31,0.00
2013-5-15,89,77,68,71,64,58,84,66,43,30.03,29.94,20,11,30,0.01
2013-5-16,88,76,68,69,62,55,77,62,40,30.02,29.92,22,11,30,0.00
2013-5-17,86,76,68,67,62,55,79,64,45,29.98,29.88,20,11,28,0.00
2013-5-18,84,74,66,70,65,57,94,74,52,29.94,29.87,14,7,19,0.09
2013-5-19,81,75,69,71,69,67,97,82,66,29.92,29.82,12,6,17,0.02
2013-5-20,80,73,67,70,67,64,93,81,64,29.93,29.82,11,5,15,0.00
2013-5-21,83,74,64,68,65,61,91,74,54,29.94,29.85,11,6,16,0.00
2013-5-22,86,77,67,70,65,62,85,68,49,29.97,29.88,10,5,16,0.00
2013-5-23,91,78,68,70,66,62,88,68,41,29.96,29.87,19,7,26,0.00
2013-5-24,88,77,69,70,64,62,83,66,45,29.97,29.89,22,13,32,0.00
2013-5-25,87,76,70,70,65,62,78,69,50,29.96,29.88,20,13,33,0.00
2013-5-26,87,77,71,70,64,59,78,65,48,30.01,29.89,23,13,31,0.00
2013-5-27,86,77,70,69,64,62,80,66,45,30.01,29.90,17,10,25,0.00
2013-5-28,86,76,68,72,67,60,95,73,54,30.01,29.93,14,5,17,0.27
2013-5-29,83,76,70,73,69,62,98,80,67,29.99,29.91,14,6,21,0.01
2013-5-30,84,76,68,71,66,60,80,71,58,29.96,29.84,14,7,17,0.00
2013-5-31,83,75,67,72,67,60,91,77,62,29.96,29.86,12,7,17,0.00
2013-6-1,89,78,69,73,67,62,90,69,49,30.00,29.86,24,10,33,0.00
2013-6-2,87,77,69,71,66,61,82,69,53,29.99,29.89,26,14,37,0.00
2013-6-3,88,78,70,66,63,60,75,61,46,29.98,29.89,19,13,27,0.00
2013-6-4,86,76,70,70,64,59,75,66,50,29.94,29.86,20,11,31,0.00
2013-6-5,89,77,68,66,62,56,76,61,44,29.95,29.85,22,12,34,0.00
2013-6-6,86,76,69,66,61,54,78,59,46,29.95,29.82,21,14,30,0.00
2013-6-7,87,75,67,67,62,56,75,63,49,29.95,29.84,20,12,30,0.00
2013-6-8,88,76,69,68,62,59,77,62,44,29.97,29.86,18,12,30,0.00
2013-6-9,90,78,69,65,63,60,78,62,41,29.98,29.91,20,13,27,0.00
2013-6-10,85,74,67,66,62,59,76,67,47,29.96,29.89,20,10,27,0.00
2013-6-11,84,76,70,69,64,60,78,68,52,29.94,29.87,16,9,24,0.00
2013-6-12,87,77,68,68,63,57,76,63,47,29.97,29.85,28,14,35,0.00
2013-6-13,87,77,68,67,62,59,77,61,45,29.99,29.92,26,14,34,0.00
2013-6-14,86,76,68,66,62,59,80,64,46,29.98,29.87,24,14,33,0.00
2013-6-15,90,78,68,63,61,58,78,59,36,29.92,29.82,20,13,29,0.00
2013-6-16,86,76,68,69,63,57,78,65,43,29.93,29.83,17,11,26,0.00
2013-6-17,89,77,70,68,64,60,79,64,40,29.98,29.88,21,12,29,0.00
2013-6-18,84,75,68,70,64,60,80,69,52,29.98,29.90,12,8,18,0.00
2013-6-19,87,77,69,69,63,58,77,63,42,29.97,29.90,18,9,26,0.00
2013-6-20,85,76,69,69,64,58,77,66,56,29.97,29.89,17,8,22,0.00
2013-6-21,86,74,68,69,64,58,82,70,52,29.96,29.86,19,10,30,0.01
2013-6-22,89,77,69,68,64,59,79,65,46,29.98,29.88,20,13,31,0.00
2013-6-23,92,78,71,70,64,61,77,64,42,30.02,29.93,20,11,28,0.00
2013-6-24,88,80,70,69,64,60,78,58,45,30.00,29.86,26,13,30,0.01
2013-6-25,84,75,68,70,64,58,79,68,53,29.93,29.85,16,8,21,0.00
2013-6-26,88,76,66,70,64,58,81,66,46,29.92,29.82,18,9,23,0.00
2013-6-27,86,76,68,65,62,57,82,64,40,29.88,29.80,20,11,30,0.00
2013-6-28,86,74,66,67,60,53,74,61,42,29.87,29.79,18,10,25,0.00
2013-6-29,88,76,66,67,62,58,78,63,39,29.88,29.77,16,9,21,0.00
2013-6-30,87,77,68,70,64,58,82,66,43,29.89,29.81,21,10,26,0.00
2013-7-1,90,78,70,69,65,63,83,67,47,29.86,29.79,19,11,27,0.00
2013-7-2,87,76,68,70,65,59,83,68,50,29.85,29.76,16,8,24,0.02
2013-7-3,88,76,70,70,66,63,81,70,48,29.87,29.78,12,7,18,0.01
2013-7-4,86,76,68,71,66,62,91,72,53,29.89,29.82,11,6,16,0.09
2013-7-5,88,77,64,71,66,56,80,68,50,29.90,29.80,11,7,16,0.00
2013-7-6,82,75,70,72,67,64,83,76,68,29.89,29.83,13,6,16,0.00
2013-7-7,83,76,68,72,67,60,91,75,47,29.86,29.77,12,6,19,0.00
2013-7-8,85,76,68,72,67,59,88,75,53,29.89,29.78,16,8,22,0.00
2013-7-9,85,77,69,71,66,62,80,69,53,29.97,29.85,15,9,24,0.00
2013-7-10,88,78,71,67,63,59,74,60,41,29.97,29.87,30,16,38,0.00
2013-7-11,86,77,70,66,64,60,76,64,47,29.93,29.84,23,15,30,0.00
2013-7-12,90,76,68,68,63,58,82,65,34,29.91,29.82,23,11,29,0.00
2013-7-13,86,76,68,70,63,58,80,64,46,29.87,29.78,18,11,27,0.00
2013-7-14,85,76,67,68,62,55,85,65,42,29.86,29.77,19,8,21,0.03
2013-7-15,83,74,68,68,65,60,91,74,52,29.89,29.80,15,7,18,0.00
2013-7-16,87,76,68,70,65,61,79,70,46,29.87,29.78,16,9,24,0.00
2013-7-17,88,77,70,69,64,56,80,64,35,29.86,29.78,19,10,24,0.00
2013-7-18,87,78,69,71,65,62,80,65,47,29.90,29.81,15,9,21,0.00
2013-7-19,84,77,69,71,66,62,82,70,58,29.93,29.84,21,8,24,0.00
2013-7-20,87,77,69,70,64,59,78,65,42,29.92,29.83,18,10,25,0.00
2013-7-21,90,78,70,71,66,61,91,68,46,29.89,29.78,18,10,28,0.00
2013-7-22,86,78,70,73,69,65,88,75,55,29.88,29.80,11,5,16,0.00
2013-7-23,88,79,71,74,71,67,96,79,58,29.88,29.81,10,5,17,0.00
2013-7-24,90,78,70,74,67,62,97,69,46,29.87,29.75,18,9,26,0.00
2013-7-25,89,78,70,67,64,59,78,62,41,29.85,29.75,19,10,25,0.00
2013-7-26,88,77,67,68,64,59,78,65,45,29.89,29.79,15,9,22,0.00
2013-7-27,89,78,70,67,64,60,77,62,46,29.89,29.79,24,14,34,0.00
2013-7-28,93,80,70,70,65,60,81,62,41,29.86,29.75,15,9,22,0.00
2013-7-29,82,76,73,76,72,68,99,89,73,29.85,29.68,11,5,15,0.38
2013-7-30,88,79,74,75,72,65,95,78,60,29.94,29.81,14,6,20,0.02
2013-7-31,90,80,73,72,66,61,89,65,44,29.93,29.77,28,14,43,0.01
2013-8-1,89,78,72,67,63,58,77,61,43,29.92,29.83,23,14,30,0.00
2013-8-2,88,77,68,69,65,60,78,66,45,29.89,29.81,18,11,25,0.00
2013-8-3,89,78,69,67,65,62,79,66,46,29.89,29.81,20,11,27,0.00
2013-8-4,90,77,69,70,66,62,81,68,48,29.89,29.80,16,10,24,0.02
2013-8-5,84,77,69,72,67,62,82,71,57,29.87,29.78,16,9,23,0.00
2013-8-6,91,78,70,72,66,61,84,68,44,29.89,29.81,18,9,26,0.00
2013-8-7,87,77,68,68,63,59,80,64,45,29.91,29.82,20,10,28,0.00
2013-8-8,86,76,66,69,65,57,79,68,49,29.93,29.83,17,9,25,0.00
2013-8-9,92,79,67,72,67,60,87,68,48,29.92,29.77,17,7,26,0.00
2013-8-10,86,79,74,75,71,66,88,77,64,29.86,29.80,11,5,21,0.00
2013-8-11,90,80,75,74,69,66,82,70,52,29.87,29.81,22,13,30,0.00
2013-8-12,88,79,73,70,67,64,81,67,49,29.90,29.81,21,12,30,0.00
2013-8-13,88,77,71,70,66,63,79,68,47,29.88,29.78,19,11,28,0.00
2013-8-14,87,78,71,68,65,62,79,67,48,29.88,29.77,23,12,33,0.00
2013-8-15,88,78,68,67,64,58,81,65,44,29.88,29.78,22,13,30,0.00
2013-8-16,89,78,68,71,67,59,81,69,54,29.87,29.78,24,14,34,0.00
2013-8-17,89,79,72,69,64,60,80,64,39,29.87,29.78,22,14,30,0.00
2013-8-18,90,78,68,68,61,56,77,58,33,29.89,29.79,18,10,27,0.00
2013-8-19,86,76,66,68,64,51,78,65,47,29.88,29.80,14,8,20,0.00
2013-8-20,84,77,69,72,67,60,88,71,52,29.86,29.79,12,6,19,0.00
2013-8-21,88,78,68,72,67,59,91,70,51,29.85,29.76,11,6,16,0.00
2013-8-22,86,79,71,72,68,64,88,70,55,29.85,29.76,15,7,20,0.00
2013-8-23,89,79,71,70,66,63,78,65,45,29.86,29.76,14,8,21,0.00
2013-8-24,90,78,70,68,65,62,80,64,43,29.89,29.78,17,11,24,0.00
2013-8-25,90,79,71,70,66,60,78,65,48,29.92,29.82,19,12,30,0.00
2013-8-26,90,78,70,70,65,62,77,64,44,29.93,29.85,24,12,33,0.00
2013-8-27,89,78,70,69,64,60,77,63,42,29.93,29.83,17,11,24,0.00
2013-8-28,90,78,68,69,62,56,77,60,33,29.95,29.86,22,11,27,0.00
2013-8-29,86,76,66,68,62,51,78,62,40,29.97,29.88,15,9,20,0.00
2013-8-30,88,78,71,69,66,64,78,69,49,29.95,29.88,12,6,17,0.00
2013-8-31,88,79,71,67,63,57,78,61,39,29.97,29.86,21,12,32,0.00
2013-9-1,85,76,69,67,62,55,74,63,44,29.95,29.84,23,11,28,0.00
2013-9-2,89,78,68,68,64,59,78,63,44,29.96,29.84,20,12,34,0.00
2013-9-3,88,77,69,70,62,52,80,62,34,29.96,29.86,23,10,30,0.00
2013-9-4,86,76,66,71,62,54,95,65,44,29.97,29.87,13,8,19,0.31
2013-9-5,85,75,65,71,65,59,89,73,51,30.03,29.93,11,6,17,0.00
2013-9-6,87,76,65,68,63,55,84,65,43,30.01,29.91,13,8,24,0.00
2013-9-7,86,78,71,72,67,64,83,71,51,29.98,29.90,15,5,22,0.31
2013-9-8,87,79,72,72,67,60,87,69,51,30.01,29.90,15,8,21,0.00
2013-9-9,90,77,70,69,63,55,75,63,40,30.02,29.92,17,10,27,0.00
2013-9-10,90,79,70,67,64,58,76,61,43,30.01,29.92,22,12,31,0.00
2013-9-11,90,80,69,69,65,60,79,62,42,30.02,29.90,20,10,27,0.00
2013-9-12,94,80,71,71,68,64,80,66,44,29.98,29.84,17,8,26,0.00
2013-9-13,90,80,73,72,68,64,81,67,44,29.90,29.80,20,9,31,0.00
2013-9-14,86,78,72,73,69,64,93,75,54,29.91,29.82,16,7,24,0.01
2013-9-15,91,79,71,70,65,61,82,64,42,29.93,29.83,17,10,26,0.00
2013-9-16,90,78,69,70,65,58,75,64,40,29.97,29.88,18,10,26,0.00
2013-9-17,88,78,71,72,67,62,80,68,49,29.97,29.86,15,8,24,0.00
2013-9-18,91,79,70,67,63,57,75,58,37,29.96,29.87,17,10,25,0.00
2013-9-19,90,79,71,69,64,62,79,62,43,29.99,29.89,20,10,29,0.00
2013-9-20,90,79,70,67,62,58,70,57,36,29.99,29.90,26,13,34,0.00
2013-9-21,88,77,70,68,64,58,78,66,43,29.98,29.88,20,12,27,0.00
2013-9-22,90,78,68,67,63,57,77,62,44,29.97,29.87,18,10,26,0.00
2013-9-23,89,78,68,66,63,58,78,60,37,29.95,29.86,19,11,27,0.00
2013-9-24,88,76,68,71,64,57,89,68,51,29.97,29.87,15,8,24,0.06
2013-9-25,90,76,68,71,65,59,80,69,45,29.98,29.90,18,9,23,0.00
2013-9-26,86,75,68,72,66,60,96,76,52,29.95,29.89,13,8,18,0.04
2013-9-27,87,77,68,70,65,60,86,67,49,30.03,29.91,18,8,24,0.00
2013-9-28,88,78,72,67,64,60,76,61,39,30.02,29.89,22,13,30,0.00
2013-9-29,88,78,71,70,64,61,77,64,42,30.01,29.88,19,11,31,0.00
2013-9-30,87,78,68,69,65,60,77,66,50,30.03,29.93,15,7,17,0.00
2013-10-1,86,78,71,72,66,62,75,67,53,30.01,29.91,16,7,23,0.00
2013-10-2,87,78,69,74,66,61,85,68,50,29.98,29.89,14,8,19,0.00
2013-10-3,86,78,72,72,66,60,81,67,47,29.98,29.88,15,7,22,0.00
2013-10-4,88,77,70,73,65,60,78,68,42,29.97,29.91,20,9,27,0.00
2013-10-5,88,78,69,68,65,59,78,66,47,30.00,29.89,22,12,30,0.00
2013-10-6,87,77,69,72,66,61,83,70,45,29.99,29.90,18,8,26,0.00
2013-10-7,84,77,70,72,65,59,85,67,49,30.04,29.94,14,7,18,0.00
2013-10-8,86,76,69,70,64,60,80,67,49,30.04,29.97,19,10,27,0.00
2013-10-9,87,78,70,70,64,60,82,64,48,30.03,29.93,21,12,27,0.00
2013-10-10,87,77,70,72,68,62,96,75,50,29.99,29.91,15,6,18,0.39
2013-10-11,86,76,68,72,68,62,91,77,60,30.05,29.93,10,5,16,0.00
2013-10-12,86,76,69,73,69,62,95,78,56,30.03,29.94,11,5,14,0.00
2013-10-13,86,76,69,73,68,62,90,76,57,30.00,29.90,10,5,14,0.00
2013-10-14,86,76,68,71,66,60,88,73,59,29.99,29.88,13,6,17,0.00
2013-10-15,86,76,68,72,66,60,84,71,51,29.99,29.87,13,7,21,0.00
2013-10-16,86,76,68,73,67,60,96,74,53,29.99,29.89,16,8,24,0.14
2013-10-17,88,77,67,72,67,62,92,73,47,29.99,29.91,10,5,16,0.01
2013-10-18,85,76,69,72,66,58,93,72,54,29.98,29.88,10,5,14,0.00
2013-10-19,86,76,69,72,68,61,94,76,57,29.93,29.85,9,5,13,0.00
2013-10-20,86,76,69,71,68,64,90,76,55,29.97,29.89,10,5,13,0.00
2013-10-21,88,77,67,68,64,62,87,67,45,29.99,29.88,12,6,17,0.00
2013-10-22,88,77,67,67,64,59,81,65,45,29.99,29.89,14,8,20,0.00
2013-10-23,87,77,68,71,64,57,78,66,48,30.00,29.90,14,8,21,0.00
2013-10-24,86,77,69,70,66,60,83,70,52,29.99,29.89,16,6,21,0.00
2013-10-25,87,78,69,71,67,61,83,70,51,30.01,29.91,12,6,17,0.00
2013-10-26,87,78,70,72,67,63,86,71,49,30.05,29.95,10,5,14,0.00
2013-10-27,86,78,70,73,68,62,90,72,57,30.03,29.94,11,5,17,0.00
2013-10-28,88,78,69,73,65,59,80,67,48,30.04,29.91,20,9,27,0.00
2013-10-29,87,76,68,68,63,57,79,64,41,30.07,29.96,18,10,24,0.00
2013-10-30,87,76,65,68,62,54,80,62,47,30.08,29.98,15,8,21,0.00
2013-10-31,90,77,70,70,65,60,80,67,47,30.08,29.98,14,8,24,0.00
2013-11-1,88,77,70,68,65,62,81,67,50,30.05,29.93,20,12,28,0.00
2013-11-2,86,77,70,67,64,58,78,65,51,30.03,29.94,23,14,31,0.00
2013-11-3,86,76,71,67,62,57,79,63,46,30.03,29.90,25,15,32,0.00
2013-11-4,87,76,70,70,66,63,86,70,48,30.02,29.92,17,8,24,0.00
2013-11-5,84,75,68,70,67,62,89,75,60,29.99,29.91,15,7,18,0.00
2013-11-6,87,77,69,71,67,59,91,73,50,29.98,29.87,14,6,17,0.00
2013-11-7,85,77,68,72,68,60,90,74,62,29.99,29.88,10,6,14,0.00
2013-11-8,86,77,71,72,67,62,81,72,60,29.98,29.85,12,7,22,0.00
2013-11-9,86,76,68,69,63,53,81,65,44,29.92,29.81,11,6,15,0.00
2013-11-10,87,76,69,70,64,59,88,69,41,29.94,29.80,24,10,30,0.02
2013-11-11,82,73,69,64,62,59,82,69,49,29.95,29.84,24,12,36,0.01
2013-11-12,85,73,67,64,61,58,76,66,45,30.00,29.88,14,8,23,0.00
2013-11-13,86,75,68,68,64,62,88,69,47,29.99,29.89,12,6,18,0.00
2013-11-14,84,74,68,73,69,65,95,86,67,30.01,29.89,9,4,11,0.05
2013-11-15,86,77,71,74,68,62,95,76,61,30.04,29.95,21,7,26,0.00
2013-11-16,84,76,69,71,66,61,83,72,62,30.04,29.92,11,6,17,0.00
2013-11-17,84,75,68,71,66,60,90,75,56,30.00,29.90,9,5,14,0.00
2013-11-18,86,76,68,68,64,60,83,67,50,30.00,29.87,10,6,14,0.00
2013-11-19,86,75,66,71,64,58,86,71,48,29.99,29.87,10,5,15,0.00
2013-11-20,84,74,66,72,66,56,93,76,52,30.01,29.90,10,5,14,0.00
2013-11-21,82,74,68,72,67,59,89,77,55,30.04,29.91,9,4,14,0.00
2013-11-22,87,74,64,71,63,56,84,68,47,30.06,29.92,18,8,24,0.00
2013-11-23,87,75,68,66,62,56,80,66,47,30.00,29.87,18,10,24,0.00
2013-11-24,89,74,65,62,59,50,80,62,37,29.97,29.86,14,9,21,0.00
2013-11-25,83,73,64,65,61,54,79,67,50,30.05,29.91,16,9,24,0.00
2013-11-26,85,74,64,66,61,52,77,64,45,30.08,29.94,14,7,17,0.00
2013-11-27,86,75,65,66,60,51,76,62,43,30.07,29.93,14,8,18,0.00
2013-11-28,83,74,64,66,61,56,81,66,48,30.02,29.90,11,6,18,0.00
2013-11-29,85,73,64,70,63,56,84,72,49,29.99,29.87,12,6,18,0.00
2013-11-30,86,74,69,70,65,59,82,73,49,29.99,29.91,11,6,16,0.00
2013-12-1,87,77,70,72,66,58,96,71,50,30.00,29.87,13,6,16,0.00
2013-12-2,81,74,67,72,69,63,96,85,66,30.00,29.91,9,5,15,0.06
2013-12-3,85,74,65,68,64,56,90,72,51,29.99,29.87,14,6,18,0.00
2013-12-4,86,73,64,67,60,51,81,63,40,30.00,29.86,17,7,23,0.00
2013-12-5,85,73,63,68,63,56,84,70,49,30.02,29.90,11,6,14,0.00
2013-12-6,84,74,65,66,62,54,86,67,48,30.02,29.90,12,7,17,0.00
2013-12-7,83,74,65,68,64,55,84,70,48,30.00,29.90,14,5,17,0.00
2013-12-8,88,76,63,71,65,53,85,70,47,30.05,29.92,8,4,12,0.00
2013-12-9,84,76,68,74,66,58,87,73,50,30.08,29.89,13,6,16,0.06
2013-12-10,90,76,69,70,64,56,82,68,38,29.96,29.83,20,10,36,0.00
2013-12-11,84,73,65,71,62,57,80,70,53,29.93,29.84,12,8,17,0.00
2013-12-12,84,74,66,68,64,55,85,72,53,29.98,29.83,14,6,17,0.00
2013-12-13,85,73,65,70,65,58,94,75,48,29.97,29.86,12,6,16,0.00
2013-12-14,82,73,66,68,64,57,86,74,57,29.93,29.81,13,6,17,0.00
2013-12-15,82,73,63,68,62,53,87,69,54,29.89,29.77,18,6,22,0.00
2013-12-16,83,73,64,69,64,59,87,73,49,29.91,29.80,11,6,29,0.00
2013-12-17,86,74,63,64,59,50,80,63,29,29.94,29.83,12,8,18,0.00
2013-12-18,84,72,63,64,58,47,82,62,40,29.95,29.84,12,6,17,0.00
2013-12-19,86,72,62,66,60,54,84,68,38,29.95,29.85,11,6,14,0.00
2013-12-20,83,73,63,69,63,56,88,72,50,29.95,29.85,11,6,15,0.00
2013-12-21,83,73,62,69,64,56,92,73,55,29.92,29.84,13,7,19,0.00
2013-12-22,84,74,64,67,62,56,86,69,50,29.91,29.81,12,6,17,0.00
2013-12-23,86,74,65,67,62,57,80,68,46,29.95,29.82,19,10,29,0.00
2013-12-24,83,75,68,67,63,59,83,67,45,29.94,29.85,22,13,31,0.00
2013-12-25,86,75,66,67,63,54,82,68,47,29.94,29.82,18,10,28,0.00
2013-12-26,85,75,68,64,62,59,81,66,45,29.89,29.72,28,14,35,0.00
2013-12-27,86,75,68,67,64,54,80,68,46,29.85,29.72,20,12,29,0.00
2013-12-28,84,74,69,70,66,63,91,77,58,29.87,29.77,15,6,22,0.00
2013-12-29,86,74,68,71,68,64,92,82,60,29.90,29.76,15,7,20,0.11
2013-12-30,85,74,68,71,67,61,92,79,60,29.88,29.81,17,8,23,0.02
2013-12-31,83,73,69,72,68,64,93,83,61,29.90,29.82,12,6,21,0.05
2014-1-1,83,72,64,69,65,60,90,79,59,29.90,29.78,10,5,13,0.00
2014-1-2,82,72,64,70,65,58,96,78,53,29.84,29.68,14,6,22,0.00